Terminal Aerodrome Forecast
Issued by NWS

Home | Current Version | Previous Version | Text Only | Print | Product List | Glossary On
Versions: 1 2 3 4 5 6 7 8 9 10 11 12 13
000
FTUS43 KGRR 210500
TAFJXN
TAF
KJXN 210540Z 2106/2206 17004KT P6SM SCT120 BKN250
     FM211500 23010KT P6SM BKN120 BKN250
     FM212200 24012KT P6SM VCTS BKN050CB
     FM220200 25012KT 4SM -SHRA VCTS OVC035CB
     FM220500 28008KT P6SM OVC025=

USA.gov is the U.S. government's official web portal to all federal, state and local government web resources and services.